Tiempo atmosférico en la estación meteorológica de Sevilla Aeropuerto, Sevilla (34 m.)



Fecha
DESCASC
Temp. máxima en grados centígrados (hora)
DESCASC
Temp. mínima en grados centígrados (hora)
DESCASC
Temp. media en grados centígrados
DESCASC
Racha de viento máxima en m/sg (hora)
DESCASC
Velocidad máxima media en intervalos de 10 minutos(hora)
DESCASC
Precipitaciones diarias en mm
DESCASC
Precipitaciones de 00:00 a 06:00 en mm
DESCASC
Precipitaciones de 06:00 a 12:00 en mm
DESCASC
Precipitaciones de 12:00 a 18:00 en mm
DESCASC
Precipitaciones de 18:00 a 24:00 en mm
DESCASC
05-12-2019 17.4 (15:20) 5.9 (06:40) 11.6 11.39 (14:00) 7.78 (13:20) 0 0 0 0 0
04-12-2019 16.5 (16:30) 8 (23:59) 12.3 8.33 (17:30) 5.56 (17:40) 0 0 0 0 0
03-12-2019 18.5 (16:00) 8.7 (04:50) 13.6 9.17 (12:30) 6.39 (12:50) 0 0 0 0 0
02-12-2019 16.8 (16:20) 10.7 (00:00) 13.7 10.83 (11:10) 7.5 (13:10) 0.7 0 0.1 0 0.6
01-12-2019 15.9 (14:00) 10.7 (00:00) 13.3 9.72 (14:40) 7.22 (14:50) 4.7 0 0 1.4 3.3
30-11-2019 20.1 (16:10) 9.6 (00:00) 14.9 9.17 (22:40) 6.39 (22:40) 0 0 0 0 0
29-11-2019 19.9 (16:40) 9.6 (00:00) 14.8 5 (14:10) 3.33 (08:30) 0 0 0 0 0
28-11-2019 -- (--) -- (--) -- -- (--) -- (--) -- -- 0 0 0
27-11-2019 -- (--) -- (--) -- -- (--) -- (--) -- 0 0 0 --
26-11-2019 18.9 (17:00) 14.3 (00:00) 16.6 11.67 (23:10) 8.61 (23:10) 0.6 0 0 0 0.6
25-11-2019 17.6 (15:20) 11.4 (00:00) 14.5 9.17 (13:10) 6.67 (13:10) 0.4 0 0.1 0.3 0
24-11-2019 17.4 (16:20) 6.1 (00:00) 11.7 6.67 (19:20) 5.28 (19:40) 0 0 0 0 0
23-11-2019 17.4 (15:20) 10.8 (00:00) 14.1 11.67 (14:50) 8.61 (15:40) 0 0 0 0 0
22-11-2019 18.3 (16:40) 13.7 (00:00) 16 20 (17:30) 12.78 (16:00) 10.5 0 1.7 8.6 0.2
21-11-2019 15.3 (19:30) 10.7 (00:00) 13 11.67 (11:10) 5.83 (11:10) 28.2 0 0.4 27.8 0
20-11-2019 11.8 (17:10) 6.1 (05:40) 9 8.89 (12:20) 5.83 (12:20) 7.3 0 0.2 4.4 2.7
19-11-2019 16.8 (16:30) 6.2 (00:00) 11.5 5.83 (19:00) 3.61 (09:20) 0 0 0 0 0
18-11-2019 18.1 (16:10) 7.7 (00:00) 12.9 11.39 (03:30) 8.61 (03:30) 7.3 7.3 0 0 0
17-11-2019 15.3 (22:30) 3.9 (00:00) 9.6 9.72 (21:40) 6.67 (22:00) 0.8 0 0.6 0.2 0
16-11-2019 16.2 (16:50) 1.3 (00:00) 8.8 6.11 (15:30) 3.89 (21:00) 0 0 0 0 0
15-11-2019 14.9 (14:20) 7.5 (00:00) 11.2 10.28 (13:40) 6.94 (13:50) 0 0 0 0 0
14-11-2019 15.6 (15:10) 10.5 (00:00) 13.1 13.33 (13:00) 10 (15:30) 1.1 0 0 1.1 0
13-11-2019 22.6 (16:40) 14.1 (00:00) 18.4 11.39 (12:00) 8.33 (12:00) 0 0 0 0 0
12-11-2019 21.4 (16:40) 7.7 (00:00) 14.5 6.11 (16:30) 3.61 (15:30) 0 0 0 0 0
11-11-2019 19.1 (17:50) 13.1 (08:00) 16.1 8.33 (00:10) 6.11 (00:10) 0 0 0 0 0
10-11-2019 19.3 (15:10) 10.7 (00:00) 15 13.89 (15:40) 10.28 (15:10) 0 0 0 0 0
09-11-2019 19.5 (16:10) 4.3 (00:00) 11.9 7.78 (22:40) 5.56 (22:40) 0 0 0 0 0
08-11-2019 19.2 (16:10) 9 (05:00) 14.1 10.83 (15:10) 6.39 (11:50) 0 0 0 0 0

Gráficas

Temp. máximas Temp. mínimas Temp. medias Precipitaciones Rachas de viento máximas Velocidades máximas media en intervalos de 10 minutos

Datos horarios

Fecha y hora oficial Temperatura (ºC) Velocidad del viento (km/h) Dirección del viento Racha (km/h) Dirección de racha Precipitación (mm) Presión (hPa) Tendencia (hPa) Humedad (%)
2019-12-07 23:00:00 10.2 0 Calma 5 Nordeste 0 1021.9 1.2 88
2019-12-07 22:00:00 10.7 6 Este 8 Este 0 1021.6 1.6 89
2019-12-07 21:00:00 11.4 0 Calma 11 Este 0 1021.1 1.5 86
2019-12-07 20:00:00 12.7 4 Este 8 Este 0 1020.7 1.4 79
2019-12-07 19:00:00 14.4 2 Sur 8 Sur 0 1020 1.2 73
2019-12-07 18:00:00 17.8 -- -- -- -- 0 1019.6 0.9 57
2019-12-07 17:00:00 19.9 0 Calma 11 Nordeste 0 1019.3 -0.1 42
2019-12-07 16:00:00 19.3 3 Nordeste 9 Nordeste 0 1018.8 -1.5 46
2019-12-07 15:00:00 18.7 3 Nordeste 13 Este 0 1018.7 -1.9 49
2019-12-07 14:00:00 17.6 7 Nordeste 13 Nordeste 0 1019.4 -1.4 50
2019-12-07 13:00:00 16.4 11 Este 18 Este 0 1020.3 0.1 60
2019-12-07 12:00:00 15 13 Nordeste 21 Nordeste 0 1020.6 0.7 66
2019-12-07 11:00:00 12.9 12 Este 18 Este 0 1020.8 1.6 75
2019-12-07 10:00:00 9.9 13 Nordeste 17 Nordeste 0 1020.2 1.6 86
2019-12-07 09:00:00 8.5 6 Norte 18 Nordeste 0 1019.9 1.7 91
2019-12-07 08:00:00 8.1 10 Nordeste 17 Nordeste 0 1019.2 1.1 92
2019-12-07 07:00:00 8.3 12 Norte 15 Norte 0 1018.6 0.1 91
2019-12-07 06:00:00 8.1 4 Este 13 Este 0 1018.2 0.2 91
2019-12-07 05:00:00 8.4 9 Este 13 Este 0 1018.1 -0.1 92
2019-12-07 04:00:00 8.8 5 Norte 9 Norte 0 1018.5 0.4 91
2019-12-07 03:00:00 9 3 Este 9 Nordeste 0 1018 0.3 90
2019-12-07 02:00:00 9.6 4 Norte 8 Oeste 0 1018.2 0.9 89
2019-12-07 01:00:00 10.3 4 Oeste 13 Nordeste 0 1018.1 1.2 84
2019-12-07 00:00:00 11.5 9 Nordeste 15 Nordeste 0 1017.7 1.1 81
2019-12-06 23:00:00 11.2 5 Nordeste 9 Este 0 1017.3 1 84
2019-12-06 22:00:00 11.8 8 Este 15 Nordeste 0 1016.9 1.2 82
2019-12-06 21:00:00 12.3 5 Este 13 Nordeste 0 1016.6 1.4 79
2019-12-06 20:00:00 13.5 9 Nordeste 11 Norte 0 1016.3 1.3 74
2019-12-06 19:00:00 15.3 6 Nordeste 11 Nordeste 0 1015.7 1 68
2019-12-06 18:00:00 17.9 9 Nordeste 17 Nordeste 0 1015.2 0.3 55
2019-12-06 17:00:00 19.6 13 Nordeste 26 Este 0 1015 -0.6 46
2019-12-06 16:00:00 19.5 18 Este 28 Este 0 1014.7 -1.5 45
2019-12-06 15:00:00 18.9 14 Nordeste 24 Este 0 1014.9 -1.7 50
2019-12-06 14:00:00 18.1 15 Este 28 Nordeste 0 1015.6 -1.4 50
2019-12-06 13:00:00 17.1 22 Nordeste 33 Este 0 1016.2 -0.4 55
2019-12-06 12:00:00 16.2 23 Este 37 Este 0 1016.6 0.6 57
2019-12-06 11:00:00 14.1 17 Nordeste 26 Este 0 1017 1.7 65
2019-12-06 10:00:00 11.3 12 Nordeste 21 Nordeste 0 1016.6 2 76
2019-12-06 09:00:00 8.7 14 Nordeste 18 Nordeste 0 1016 1.9 87
2019-12-06 08:00:00 8.9 10 Norte 13 Norte 0 1015.3 1.3 85
2019-12-06 07:00:00 9.2 10 Nordeste 18 Este 0 1014.6 0.9 84
2019-12-06 06:00:00 10 11 Nordeste 24 Este 0 1014.1 0.6 82
2019-12-06 05:00:00 10.7 17 Nordeste 22 Este 0 1014 0.6 79
2019-12-06 04:00:00 10 9 Este 17 Este 0 1013.7 -0.2 84
2019-12-06 03:00:00 9.9 11 Nordeste 15 Nordeste 0 1013.5 -0.4 85
2019-12-06 02:00:00 10.2 10 Nordeste 13 Nordeste 0 1013.4 -0.3 86
2019-12-06 01:00:00 11.3 10 Nordeste 17 Nordeste 0 1013.9 0.6 83
2019-12-06 00:00:00 12.1 12 Nordeste 22 Nordeste 0 1013.9 1.2 78
2019-12-05 23:00:00 12.5 13 Nordeste 18 Nordeste 0 1013.7 1.6 74
2019-12-05 22:00:00 11.8 10 Nordeste 13 Nordeste 0 1013.3 1.8 78
2019-12-05 21:00:00 12 11 Este 17 Este 0 1012.7 1.7 77
2019-12-05 20:00:00 13.2 10 Este 21 Este 0 1012.1 1.8 72
2019-12-05 19:00:00 14.6 13 Nordeste 24 Nordeste 0 1011.5 1.6 66
2019-12-05 18:00:00 16.1 18 Nordeste 30 Nordeste 0 1011 1.2 59
2019-12-05 17:00:00 17.3 17 Este 33 Este 0 1010.3 -0.1 51
2019-12-05 16:00:00 17.3 24 Este 37 Este 0 1009.9 -1.1 55
2019-12-05 15:00:00 16.9 24 Nordeste 41 Este 0 1009.8 -1.7 55
2019-12-05 14:00:00 16.4 26 Este 41 Este 0 1010.4 -1.3 61
2019-12-05 13:00:00 15.3 24 Nordeste 35 Este 0 1011 -0.2 67
2019-12-05 12:00:00 13.6 17 Nordeste 26 Nordeste 0 1011.5 1.2 72
2019-12-05 11:00:00 11.3 13 Nordeste 18 Nordeste 0 1011.7 1.8 76
2019-12-05 10:00:00 8.2 10 Nordeste 17 Norte 0 1011.2 1.9 87
2019-12-05 09:00:00 6.7 6 Nordeste 13 Nordeste 0 1010.3 1.6 91
2019-12-05 08:00:00 6.2 10 Nordeste 13 Nordeste 0 1009.9 1.5 92
2019-12-05 07:00:00 6.1 2 Nordeste 5 Nordeste 0 1009.3 1 93
2019-12-05 06:00:00 6.3 9 Nordeste 13 Nordeste 0 1008.7 0.4 94
2019-12-05 05:00:00 6.1 0 Calma 4 Sur 0 1008.4 0 93
2019-12-05 04:00:00 6.9 6 Norte 9 Nordeste 0 1008.3 0.2 92
2019-12-05 03:00:00 6.9 0 Calma 8 Este 0 1008.3 0.2 92
2019-12-05 02:00:00 7.1 4 Sudeste 8 Sudeste 0 1008.4 0.8 90
2019-12-05 01:00:00 7.5 3 Sur -- -- 0 1008.1 0.7 91
2019-12-05 00:00:00 8 5 Sudeste 9 Sur 0 1008.1 1 89
2019-12-04 23:00:00 9.6 4 Sudeste 17 Sur 0 1007.6 1.1 81
2019-12-04 22:00:00 10.3 10 Sur 15 Sur 0 1007.4 1.6 80
2019-12-04 21:00:00 10 12 Sur 15 Sur 0 1007.1 1.7 81
2019-12-04 20:00:00 11.7 10 Sudoeste 15 Sudoeste 0 1006.5 1.4 73
2019-12-04 19:00:00 12.5 9 Sur 17 Sudoeste 0 1005.8 0.9 69
2019-12-04 18:00:00 13.7 14 Sudoeste 30 Sudoeste 0 1005.4 0.3 59
2019-12-04 17:00:00 16.1 13 Sudoeste 22 Oeste 0 1005.1 -0.4 53
2019-12-04 16:00:00 15.9 10 Sudoeste 18 Oeste 0 1004.9 -1.1 48
2019-12-04 15:00:00 16.3 12 Sur 21 Sur 0 1005.1 -1.8 52
2019-12-04 14:00:00 15.6 8 Sudoeste 17 Oeste 0 1005.5 -2 55
2019-12-04 13:00:00 15.3 8 Sudoeste 15 Sudeste 0 1006 -1.1 62
2019-12-04 12:00:00 14.2 12 Este 17 Sudeste 0 1006.9 0.2 64
2019-12-04 11:00:00 13.3 9 Este 13 Este 0 1007.5 1.2 68
2019-12-04 10:00:00 11.6 8 Nordeste 17 Nordeste 0 1007.1 0.9 81
2019-12-04 09:00:00 10 5 Noroeste 9 Norte 0 1006.7 0.8 89
2019-12-04 08:00:00 10.7 4 Nordeste 9 Nordeste 0 1006.3 -0.3 89
2019-12-04 07:00:00 10.4 0 Calma 8 Nordeste 0 1006.2 -0.7 89
2019-12-04 06:00:00 10.8 7 Nordeste 9 Nordeste 0 1005.9 -1.3 89
2019-12-04 05:00:00 12 7 Norte 11 Norte 0 1006.6 -1 83
2019-12-04 04:00:00 11.1 0 Calma 5 Sudeste 0 1006.9 -1.4 90
2019-12-04 03:00:00 10.9 2 Nordeste 8 Sur 0 1007.2 -1.2 91
2019-12-04 02:00:00 11.1 4 Sudeste 5 Sur 0 1007.6 -0.6 86
2019-12-04 01:00:00 11.9 0 Calma 8 Este 0 1008.3 0.4 82
2019-12-04 00:00:00 11.7 4 Nordeste 8 Nordeste 0 1008.4 1 83
2019-12-03 23:00:00 10.9 5 Este 9 Este 0 1008.2 1 86
2019-12-03 22:00:00 12.4 4 Norte 11 Norte 0 1007.9 1.1 79
2019-12-03 21:00:00 13.1 6 Nordeste 13 Nordeste 0 1007.4 0.9 77
2019-12-03 20:00:00 14.3 6 Nordeste 9 Nordeste 0 1007.2 1.1 76
2019-12-03 19:00:00 15.1 9 Sudeste 11 Sudeste 0 1006.8 0.9 72
2019-12-03 18:00:00 17.3 8 Sudeste 17 Este 0 1006.5 0.6 61
2019-12-03 17:00:00 18.5 11 Este 18 Este 0 1006.1 -0.3 54
2019-12-03 16:00:00 18.4 13 Nordeste 21 Nordeste 0 1005.9 -1.2 54
2019-12-03 15:00:00 17.7 12 Nordeste 26 Nordeste 0 1005.9 -2 55
2019-12-03 14:00:00 17.2 19 Nordeste 28 Nordeste 0 1006.4 -1.7 57
2019-12-03 13:00:00 16.3 20 Nordeste 33 Este 0 1007.1 -1.1 58
2019-12-03 12:00:00 15.2 18 Nordeste 24 Nordeste 0 1007.9 -0.4 63
2019-12-03 11:00:00 13.6 17 Nordeste 22 Norte 0 1008.1 0.4 70
2019-12-03 10:00:00 11.4 12 Nordeste 15 Nordeste 0 1008.2 0.9 78
2019-12-03 09:00:00 9.3 9 Norte 13 Norte 0 1008.3 1 85
2019-12-03 08:00:00 9.2 10 Nordeste 18 Nordeste 0 1007.7 0.1 86
2019-12-03 07:00:00 9.1 13 Nordeste 17 Nordeste 0 1007.3 -0.9 86
2019-12-03 06:00:00 9.1 7 Nordeste 13 Nordeste 0 1007.3 -1.1 87
2019-12-03 05:00:00 8.8 6 Nordeste 11 Nordeste 0 1007.6 -1 91
2019-12-03 04:00:00 9.5 3 Norte 8 Nordeste 0 1008.2 -0.8 90
2019-12-03 03:00:00 9.8 8 Nordeste 15 Nordeste 0 1008.4 -0.7 89
2019-12-03 02:00:00 10.4 10 Nordeste 18 Este 0 1008.6 -0.1 87
2019-12-03 01:00:00 12.2 14 Este 26 Nordeste 0 1009 0.3 79
2019-12-03 00:00:00 11 15 Nordeste 21 Nordeste 0 1009.1 0.8 88
2019-12-02 23:00:00 11.2 8 Este 9 Sudeste 0 1008.7 1.2 90
2019-12-02 22:00:00 12.1 9 Nordeste 11 Nordeste 0 1008.7 1.9 90
2019-12-02 21:00:00 13.3 9 Nordeste 17 Nordeste 0 1008.3 1.9 85
2019-12-02 20:00:00 13.2 9 Este 17 Este 0.1 1007.5 1.7 86
2019-12-02 19:00:00 12.9 11 Este 39 Este 0.5 1006.8 1.3 82
2019-12-02 18:00:00 15.1 10 Sudeste 24 Este 0 1006.4 0.9 74
2019-12-02 17:00:00 15.9 13 Este 28 Este 0 1005.8 0.1 68
2019-12-02 16:00:00 15.9 11 Este 24 Este 0 1005.5 -0.6 64
2019-12-02 15:00:00 15.5 20 Este 35 Este 0 1005.5 -1.1 67
2019-12-02 14:00:00 15.3 23 Este 35 Este 0 1005.7 -0.7 71
2019-12-02 13:00:00 15 25 Este 39 Este 0 1006.1 0.2 72
2019-12-02 12:00:00 13.3 24 Nordeste 39 Este 0 1006.6 1.2 79
2019-12-02 11:00:00 13 23 Nordeste 35 Nordeste 0 1006.4 1.4 79
2019-12-02 10:00:00 11.9 19 Nordeste 30 Nordeste 0 1005.9 1.2 87
2019-12-02 09:00:00 11 17 Nordeste 26 Nordeste 0 1005.4 0.8 92
2019-12-02 08:00:00 10.9 18 Nordeste 28 Este 0.1 1005 0.3 91
2019-12-02 07:00:00 11 15 Nordeste 28 Nordeste 0 1004.7 -0.1 91
2019-12-02 06:00:00 11.1 19 Nordeste 26 Nordeste 0 1004.6 -0.2 92
2019-12-02 05:00:00 11.1 19 Nordeste 26 Nordeste 0 1004.7 -0.5 93
2019-12-02 04:00:00 11.4 10 Nordeste 13 Nordeste 0 1004.8 -0.8 93
2019-12-02 03:00:00 11.5 5 Sudeste 9 Sudeste 0 1004.8 -1 92
2019-12-02 02:00:00 11.9 4 Sur 9 Sur 0 1005.2 -0.7 90
2019-12-02 01:00:00 12.5 4 Sur 11 Sudoeste 0 1005.6 -0.6 87
2019-12-02 00:00:00 12.8 9 Oeste 13 Oeste 0 1005.8 -0.4 84
2019-12-01 23:00:00 12.8 11 Oeste 18 Oeste 0.1 1005.9 -0.6 85
2019-12-01 22:00:00 13.3 14 Sudoeste 21 Sudoeste 0 1006.2 -0.4 86
2019-12-01 21:00:00 13.7 12 Sudoeste 22 Sudoeste 0 1006.2 -0.6 90
2019-12-01 20:00:00 13.9 15 Sudoeste 22 Sudoeste 0.1 1006.5 -0.4 86
2019-12-01 19:00:00 14 9 Sur 24 Sudoeste 3.1 1006.6 -0.7 86
2019-12-01 18:00:00 14.6 9 Sur 24 Sudoeste 0 1006.8 -1 80
2019-12-01 17:00:00 15.4 15 Sudoeste 24 Sudoeste 0 1006.9 -1.9 77
2019-12-01 16:00:00 14.6 11 Sudoeste 30 Sudoeste 0.1 1007.3 -2.6 81
2019-12-01 15:00:00 14.3 17 Sudoeste 35 Sudoeste 1.3 1007.8 -3.7 86
2019-12-01 14:00:00 15.8 22 Sudoeste 33 Sudoeste 0 1008.8 -3 71
2019-12-01 13:00:00 14.7 21 Sudoeste 28 Sudoeste 0 1009.9 -1.9 79
2019-12-01 12:00:00 13.5 15 Sudoeste 24 Sudoeste 0 1011.5 -0.4 89
2019-12-01 11:00:00 12.7 11 Sudoeste 17 Sudoeste 0 1011.8 -0.4 90
2019-12-01 10:00:00 12 12 Sur 15 Sur 0 1011.8 -0.1 91
2019-12-01 09:00:00 11 9 Sur 13 Oeste 0 1011.9 -0.4 92
2019-12-01 08:00:00 11 9 Oeste 15 Oeste 0 1012.2 -0.4 92
2019-12-01 07:00:00 11.3 6 Sudoeste 15 Oeste 0 1011.9 -1 93
2019-12-01 06:00:00 12.3 6 Noroeste 9 Noroeste 0 1012.3 -1.5 91
2019-12-01 05:00:00 13.1 6 Oeste 9 Sudoeste 0 1012.6 -1.3 90
2019-12-01 04:00:00 14 6 Sudoeste 17 Oeste 0 1012.9 -1.5 85
2019-12-01 03:00:00 15.1 13 Oeste 17 Oeste 0 1013.8 -0.8 85
2019-12-01 02:00:00 15.2 10 Oeste 18 Sudoeste 0 1013.9 -1.2 88
2019-12-01 01:00:00 15.2 14 Sudoeste 26 Sudoeste 0 1014.4 -1.2 91
2019-12-01 00:00:00 15.4 13 Sudoeste 32 Sudoeste 0 1014.6 -1.2 90
2019-11-30 23:00:00 16 22 Sudoeste 33 Sudoeste 0 1015.1 -1 85
2019-11-30 22:00:00 16.1 17 Sudoeste 26 Sudoeste 0 1015.6 -0.4 78
2019-11-30 21:00:00 16.9 19 Sudoeste 30 Sudoeste 0 1015.8 0 69
2019-11-30 20:00:00 17.7 15 Sudoeste 22 Sudoeste 0 1016.1 0.4 64
2019-11-30 19:00:00 17.9 12 Oeste 21 Oeste 0 1016 0.1 62
2019-11-30 18:00:00 18.3 15 Oeste 28 Oeste 0 1015.8 -0.7 67
2019-11-30 17:00:00 19.5 17 Oeste 26 Oeste 0 1015.7 -1.9 60
2019-11-30 16:00:00 19.8 8 Oeste 15 Oeste 0 1015.9 -2.6 61
2019-11-30 15:00:00 19.6 9 Oeste 17 Oeste 0 1016.5 -2.7 61
2019-11-30 14:00:00 18.7 8 Noroeste 13 Noroeste 0 1017.6 -1.9 64
2019-11-30 13:00:00 17.2 5 Norte 17 Norte 0 1018.5 -0.7 72
2019-11-30 12:00:00 16 5 Norte 11 Noroeste 0 1019.2 0.3 76
2019-11-30 11:00:00 13.9 5 Norte 13 Noroeste 0 1019.5 0.6 85
2019-11-30 10:00:00 11.8 4 Norte -- -- 0 1019.2 0.6 88
2019-11-30 09:00:00 10 4 Norte -- -- 0 1018.9 0.6 91
2019-11-30 08:00:00 9.8 4 Noroeste 11 Noroeste 0 1018.9 0.5 90
2019-11-30 07:00:00 10 4 Norte 8 Oeste 0 1018.6 0 89
2019-11-30 06:00:00 10.7 0 Calma 8 Nordeste 0 1018.3 -0.3 88
2019-11-30 05:00:00 11 2 Nordeste 5 Nordeste 0 1018.4 -0.6 89
2019-11-30 04:00:00 10.9 4 Nordeste 5 Nordeste 0 1018.6 -0.4 89
2019-11-30 03:00:00 11.2 0 Calma 5 Noroeste 0 1018.6 -0.1 89
2019-11-30 02:00:00 11.7 5 Noroeste 8 Noroeste 0 1019 0.2 89
2019-11-30 01:00:00 12.5 6 Norte 15 Nordeste 0 1019 0.3 87
2019-11-30 00:00:00 12.7 11 Nordeste 18 Nordeste 0 1018.7 -0.1 88
2019-11-29 23:00:00 13.4 6 Norte 11 Norte 0 1018.8 0.2 87
2019-11-29 22:00:00 14 5 Nordeste 8 Nordeste 0 1018.7 0.3 88
2019-11-29 21:00:00 14.6 0 Calma 5 Norte 0 1018.8 0.7 87
2019-11-29 20:00:00 15.1 3 Nordeste -- -- 0 1018.6 0.6 84
2019-11-29 19:00:00 16.1 9 Este 9 Este 0 1018.4 0.5 75
2019-11-29 18:00:00 18.4 6 Este 13 Este 0 1018.1 -0.2 68
2019-11-29 17:00:00 19.8 8 Este 13 Este 0 1018 -0.8 59
2019-11-29 16:00:00 19.5 8 Nordeste 18 Norte 0 1017.9 -1.5 59
2019-11-29 15:00:00 19 11 Nordeste 18 Nordeste 0 1018.3 -1.9 65
2019-11-29 14:00:00 18.8 10 Norte 17 Nordeste 0 1018.8 -1.3 67
2019-11-29 13:00:00 17.8 5 Nordeste 13 Nordeste 0 1019.4 -0.3 71
2019-11-29 12:00:00 15.3 9 Norte 15 Norte 0 1020.2 1 81
2019-11-29 11:00:00 13.7 6 Norte 13 Nordeste 0 1020.1 1.4 86
2019-11-29 10:00:00 11.6 9 Nordeste 11 Nordeste 0 1019.7 1.5 94
2019-11-29 09:00:00 9.8 8 Nordeste 13 Nordeste 0 1019.2 1.2 97
2019-11-29 08:00:00 9.7 11 Nordeste 13 Nordeste 0 1018.7 1 97
2019-11-29 07:00:00 10.1 5 Norte 9 Nordeste 0 1018.2 0.6 97
2019-11-29 06:00:00 10.4 9 Nordeste 11 Nordeste 0 1018 0.4 97
2019-11-29 05:00:00 10.3 7 Nordeste 9 Nordeste 0 1017.7 0.5 96
2019-11-29 04:00:00 10.7 0 Calma 8 Norte 0 1017.6 0.2 96
2019-11-29 03:00:00 11.2 5 Norte 8 Norte 0 1017.6 0 96
2019-11-29 02:00:00 11.1 0 Calma 5 Este 0 1017.2 -0.3 94
2019-11-29 01:00:00 11.7 0 Calma 8 Nordeste 0 1017.4 0.3 94
2019-11-29 00:00:00 12.5 5 Nordeste 11 Norte 0 1017.6 0.9 93
2019-11-28 23:00:00 12.8 5 Sur 11 Sur 0 1017.5 1.2 91
2019-11-28 22:00:00 12.5 8 Sudeste 9 Sudeste 0 1017.1 1.1 92
2019-11-28 21:00:00 13 -- -- -- -- 0 1016.7 1.2 90
2019-11-28 20:00:00 14.4 7 Este 9 Sudeste 0 1016.3 0.8 88
2019-11-28 19:00:00 16.1 0 Calma -- -- 0 1016 0.6 78
2019-11-28 18:00:00 17.8 5 Sur 9 Noroeste 0 1015.5 -0.2 67
2019-11-28 17:00:00 18.9 4 Oeste 9 Norte 0 1015.5 -1 63
2019-11-28 16:00:00 18.6 4 Norte 9 Sudoeste 0 1015.4 -1.7 65
2019-11-28 15:00:00 18.2 6 Noroeste 11 Noroeste -- 1015.7 -1.8 68
2019-11-28 14:00:00 17.1 0 Calma 9 Noroeste -- 1016.5 -1.2 77
2019-11-28 13:00:00 16 5 Oeste 13 Este 0 1017.1 0 84
2019-11-28 12:00:00 14.8 3 Nordeste 11 Este 0 1017.5 0.9 90
2019-11-28 11:00:00 14.4 2 Sur 9 Nordeste 0 1017.7 1.7 97
2019-11-28 10:00:00 13.1 7 Nordeste 17 Norte 0 1017.1 1.8 100
2019-11-28 09:00:00 12.7 6 Norte 11 Norte 0 1016.6 1.2 100
2019-11-28 08:00:00 13 7 Norte 24 Norte 0 1016 1 100
2019-11-28 07:00:00 12.9 4 Este 8 Sudeste 0 1015.3 0.4 100
2019-11-28 06:00:00 12.9 6 Sudeste 9 Este 0 1015.4 0.7 100
2019-11-28 05:00:00 12.6 5 Sudeste 9 Sudeste 0 1015 0.2 100
2019-11-28 04:00:00 12.5 6 Sudoeste 13 Oeste 0 1014.9 -- 99
2019-11-28 03:00:00 11.9 9 Sudeste 13 Sudeste 0 1014.7 -- 98
2019-11-28 02:00:00 11.4 0 Calma -- -- -- 1014.8 -- 96
2019-11-28 01:00:00 -- -- -- -- -- -- -- -- --
2019-11-28 00:00:00 -- -- -- -- -- -- -- -- --
2019-11-27 23:00:00 -- -- -- -- -- -- -- -- --
2019-11-27 22:00:00 15.1 8 Oeste 17 Sudoeste 0 1014.7 1.8 84
2019-11-27 21:00:00 15.8 10 Oeste 15 Oeste 0 1014.2 1.6 81
2019-11-27 20:00:00 16.6 10 Oeste 13 Oeste 0 1013.4 1.1 78
2019-11-27 19:00:00 17 11 Oeste 17 Oeste 0 1012.9 0.6 76
2019-11-27 18:00:00 17 13 Oeste 17 Oeste 0 1012.6 0.2 78
2019-11-27 17:00:00 18.2 9 Oeste 24 Oeste 0 1012.3 -0.7 72
2019-11-27 16:00:00 18.1 16 Oeste 24 Noroeste 0 1012.3 -1.3 73
2019-11-27 15:00:00 18 3 Sudoeste 13 Oeste 0 1012.4 -2 75
2019-11-27 14:00:00 17.6 8 Oeste 13 Oeste 0 1013 -1.2 79
2019-11-27 06:00:00 14.5 12 Sudoeste 21 Sudoeste 0 1011.3 -0.1 97
2019-11-27 05:00:00 14.5 13 Sudoeste 22 Sudoeste 0 1011.2 -0.1 97
2019-11-27 04:00:00 14.9 13 Sudoeste 21 Sudoeste 0 1011.4 -0.1 96
2019-11-27 03:00:00 15.2 15 Sudoeste 21 Sudoeste 0 1011.4 -0.5 95
2019-11-27 02:00:00 15.8 13 Sudoeste 24 Sudoeste 0 1011.3 -0.4 93
2019-11-27 01:00:00 16.3 19 Sudoeste 39 Sudoeste 0 1011.5 -0.1 96
2019-11-27 00:00:00 16.4 28 Sudoeste 42 Sudoeste 0.4 1011.9 0.4 96
2019-11-26 23:00:00 16.7 29 Sudoeste 41 Sudoeste 0.2 1011.7 0 93
2019-11-26 22:00:00 17 17 Sudoeste 28 Sur 0 1011.6 -0.1 92
2019-11-26 21:00:00 17.1 18 Sudoeste 32 Sudoeste 0 1011.5 0.3 92
2019-11-26 20:00:00 17.3 23 Sudoeste 30 Sudoeste 0 1011.7 0.6 90
2019-11-26 19:00:00 17.8 19 Sudoeste 33 Sudoeste 0 1011.7 0.1 85
2019-11-26 18:00:00 18.5 25 Sudoeste 35 Sudoeste 0 1011.2 -0.4 81
2019-11-26 17:00:00 18.8 18 Sudoeste 26 Sudoeste 0 1011.1 -1.4 81
2019-11-26 16:00:00 17.8 7 Noroeste 17 Noroeste 0 1011.6 -1.6 93
2019-11-26 15:00:00 17.8 5 Oeste 13 Sudoeste 0 1011.6 -2.5 93
2019-11-26 14:00:00 16.9 8 Oeste 15 Sudoeste 0 1012.5 -1.7 97
2019-11-26 13:00:00 16.8 10 Sudoeste 17 Sudoeste 0 1013.2 -1.1 96
2019-11-26 12:00:00 16.1 10 Sudoeste 17 Sudoeste 0 1014.1 -0.3 96
2019-11-26 11:00:00 15.7 5 Sur 11 Sur 0 1014.2 0.3 96
2019-11-26 10:00:00 15 5 Sur 9 Sur 0 1014.3 0.3 99
2019-11-26 09:00:00 14.5 0 Calma 8 Sudeste 0 1014.4 0.5 100
2019-11-26 08:00:00 14.4 5 Sur 9 Sur 0 1013.9 0 100
2019-11-26 07:00:00 14.3 4 Sudoeste 11 Oeste 0 1014 -0.4 100
2019-11-26 06:00:00 14.5 8 Sudoeste 11 Oeste 0 1013.9 -0.4 100
2019-11-26 05:00:00 14.8 5 Sur 9 Sur 0 1013.9 -1 100
2019-11-26 04:00:00 14.6 4 Sur 8 Sudeste 0 1014.4 -0.9 99
2019-11-26 03:00:00 15 3 Sur 9 Oeste 0 1014.3 -1.1 99
2019-11-26 02:00:00 15.5 8 Oeste 15 Noroeste 0 1014.9 -0.3 98
2019-11-26 01:00:00 16.3 7 Oeste 13 Oeste 0 1015.3 0.2 97
2019-11-26 00:00:00 16.5 3 Sur 9 Sudoeste 0 1015.4 0.6 97
2019-11-25 23:00:00 16.9 5 Sudoeste 15 Oeste 0 1015.2 0.6 97
2019-11-25 22:00:00 16.9 12 Sudoeste 21 Sudoeste 0 1015.1 0.6 98
2019-11-25 21:00:00 17.2 15 Sudoeste 22 Sudoeste 0 1014.8 0.8 96
2019-11-25 20:00:00 17.3 14 Sudoeste 22 Sudoeste 0 1014.6 0.6 96
2019-11-25 19:00:00 17.4 14 Sudoeste 26 Sudoeste 0 1014.5 0.6 95
2019-11-25 18:00:00 17.5 17 Sudoeste 28 Sudoeste 0 1014 0.1 94
2019-11-25 17:00:00 17.6 17 Sudoeste 33 Sudoeste 0 1014 -0.4 94
2019-11-25 16:00:00 17.6 18 Sudoeste 30 Sudoeste 0 1013.9 -1.1 94
2019-11-25 15:00:00 17.4 18 Sudoeste 32 Sudoeste 0 1013.9 -1.8 95
2019-11-25 14:00:00 17.1 19 Sudoeste 33 Sudoeste 0.3 1014.4 -1.6 96
2019-11-25 13:00:00 16.9 22 Sudoeste 32 Sudoeste 0 1015 -0.6 94
2019-11-25 12:00:00 16.2 19 Sudoeste 30 Sudoeste 0 1015.7 0.5 94
2019-11-25 11:00:00 15.8 19 Sudoeste 28 Sudoeste 0 1016 0.8 93
2019-11-25 10:00:00 15.1 11 Sur 21 Sudoeste 0 1015.6 0.7 91
2019-11-25 09:00:00 14.3 12 Sur 21 Sur 0.1 1015.2 0.4 91
2019-11-25 08:00:00 14.2 11 Sur 21 Sur 0 1015.2 0.3 89
2019-11-25 07:00:00 13.3 11 Sur 17 Sur 0 1014.9 -0.3 92
2019-11-25 06:00:00 12.7 9 Sur 13 Sur 0 1014.8 -0.3 95
2019-11-25 05:00:00 12.3 11 Sur 13 Sur 0 1014.9 -0.6 95
2019-11-25 04:00:00 12.7 4 Sur 8 Sur 0 1015.2 -0.8 90
2019-11-25 03:00:00 12.6 5 Sur 9 Sudoeste 0 1015.1 -0.9 90
2019-11-25 02:00:00 12.5 0 Calma 13 Sur 0 1015.5 -0.9 90
2019-11-25 01:00:00 12.7 10 Sudoeste 15 Sudoeste 0 1016 -0.2 87
2019-11-25 00:00:00 11.4 11 Sur 15 Sur 0 1016 0 91
2019-11-24 23:00:00 12.6 8 Sudoeste 15 Sudoeste 0 1016.4 0.9 87
2019-11-24 22:00:00 13 9 Sur 15 Sudoeste 0 1016.2 1.3 83
2019-11-24 21:00:00 14.2 10 Sudoeste 17 Sudoeste 0 1016 1.5 77
2019-11-24 20:00:00 14.8 13 Sudoeste 24 Oeste 0 1015.5 1.2 72
2019-11-24 19:00:00 15.9 12 Oeste 22 Oeste 0 1014.9 0.8 67
2019-11-24 18:00:00 16.6 15 Oeste 21 Oeste 0 1014.5 0.1 63
2019-11-24 17:00:00 16.8 14 Sudoeste 21 Sudoeste 0 1014.3 -0.8 62
2019-11-24 16:00:00 17 11 Sur 22 Sudoeste 0 1014.1 -1.6 59
2019-11-24 15:00:00 16.8 8 Sudoeste 17 Sudoeste 0 1014.4 -2.3 58
2019-11-24 14:00:00 16 10 Sudoeste 17 Sudoeste 0 1015.1 -1.5 59
2019-11-24 13:00:00 14.6 5 Oeste 9 Oeste 0 1015.7 -0.2 67
2019-11-24 12:00:00 14.1 0 Calma 5 Sur 0 1016.7 1 69
2019-11-24 11:00:00 10.9 0 Calma 9 Norte 0 1016.6 1.4 78
2019-11-24 10:00:00 9.4 3 Sudeste 9 Oeste 0 1015.9 1.7 83
2019-11-24 09:00:00 6.7 2 Sur 4 Sur 0 1015.7 2 94
2019-11-24 08:00:00 6.4 0 Calma -- -- 0 1015.2 1.9 93
2019-11-24 07:00:00 7 3 Oeste 5 Noroeste 0 1014.2 1 92
2019-11-24 06:00:00 7.8 2 Noroeste 8 Noroeste 0 1013.7 0.7 90
2019-11-24 05:00:00 7.8 0 Calma 5 Norte 0 1013.3 0.6 91
2019-11-24 04:00:00 8 4 Sur 11 Sudeste 0 1013.2 0.4 90
2019-11-24 03:00:00 9.5 5 Sudeste 13 Oeste 0 1013 0.3 83
2019-11-24 02:00:00 9.8 8 Sudoeste 11 Sudoeste 0 1012.7 0.3 80
2019-11-24 01:00:00 10.2 4 Sudoeste 15 Oeste 0 1012.8 0.6 80
2019-11-24 00:00:00 11 8 Oeste 15 Oeste 0 1012.7 1.4 78
2019-11-23 23:00:00 11.1 12 Oeste 15 Oeste 0 1012.4 1.5 76
2019-11-23 22:00:00 11.2 11 Oeste 18 Noroeste 0 1012.2 2.1 77
2019-11-23 21:00:00 12.4 15 Noroeste 21 Noroeste 0 1011.3 2.4 74
2019-11-23 20:00:00 12.4 10 Oeste 21 Oeste 0 1010.9 2.9 72
2019-11-23 19:00:00 14.1 14 Oeste 24 Noroeste 0 1010.1 2.7 67
2019-11-23 18:00:00 15.9 15 Oeste 30 Noroeste 0 1008.9 1.7 58
2019-11-23 17:00:00 16.8 23 Noroeste 32 Noroeste 0 1008 0.8 52
2019-11-23 16:00:00 17.1 23 Oeste 42 Oeste 0 1007.4 0.1 53
2019-11-23 15:00:00 17 29 Oeste 42 Oeste 0 1007.2 -0.2 55
2019-11-23 14:00:00 16.7 27 Noroeste 41 Noroeste 0 1007.2 0.2 54
2019-11-23 13:00:00 16.2 26 Oeste 35 Oeste 0 1007.3 1.5 60
2019-11-23 12:00:00 15.2 20 Oeste 30 Oeste 0 1007.4 2.8 69
2019-11-23 11:00:00 14.5 24 Oeste 30 Oeste 0 1007 3.9 74
2019-11-23 10:00:00 13.5 15 Oeste 26 Sudoeste 0 1005.8 3.6 82
2019-11-23 09:00:00 12.4 17 Sudoeste 26 Oeste 0 1004.6 3 87
2019-11-23 08:00:00 12.4 16 Sudoeste 26 Sudoeste 0 1003.1 2.2 88
2019-11-23 07:00:00 13.1 16 Oeste 28 Oeste 0 1002.2 1.9 80
2019-11-23 06:00:00 13.5 22 Oeste 39 Oeste 0 1001.6 1.8 80
2019-11-23 05:00:00 13.3 22 Oeste 32 Sudoeste 0 1000.9 1.5 84
2019-11-23 04:00:00 13.6 20 Sudoeste 35 Oeste 0 1000.3 1 82
2019-11-23 03:00:00 14 21 Sudoeste 33 Oeste 0 999.8 0.5 83
2019-11-23 02:00:00 14.1 23 Sudoeste 33 Sudoeste 0 999.4 0.2 84
2019-11-23 01:00:00 14.1 23 Sudoeste 37 Sudoeste 0 999.3 0.9 87
2019-11-23 00:00:00 14.6 28 Sudoeste 37 Sudoeste 0 999.3 1.4 84
2019-11-22 23:00:00 14.5 23 Sudoeste 33 Sudoeste 0 999.2 2.1 88
2019-11-22 22:00:00 14.4 23 Sudoeste 32 Sudoeste 0 998.4 2.3 88
2019-11-22 21:00:00 15.2 18 Sudoeste 32 Oeste 0 997.9 2.7 84
2019-11-22 20:00:00 16.2 23 Oeste 41 Oeste 0 997.1 2.9 80
2019-11-22 19:00:00 16.8 33 Oeste 52 Oeste 0.2 996.1 2.1 80
2019-11-22 18:00:00 17.9 33 Oeste 72 Oeste 0.8 995.2 0.3 91
2019-11-22 17:00:00 18.2 35 Sudoeste 71 Sudoeste 0 994.2 -2 89
2019-11-22 16:00:00 18.1 46 Sudoeste 67 Sudoeste 0 994 -3.3 90
2019-11-22 15:00:00 17.7 44 Sudoeste 63 Sudoeste 0.6 994.9 -4.1 92
2019-11-22 14:00:00 17.4 43 Sudoeste 65 Sudoeste 6.1 996.2 -3.6 94
2019-11-22 13:00:00 17.5 41 Sudoeste 58 Sudoeste 1.1 997.3 -3 93
2019-11-22 12:00:00 17.2 38 Sudoeste 54 Sudoeste 1.5 999 -1.7 93
2019-11-22 11:00:00 16.7 18 Sudoeste 35 Sudoeste 0.1 999.8 -1.1 94
2019-11-22 10:00:00 15.4 11 Sur 21 Sur 0 1000.3 -1.7 98
2019-11-22 09:00:00 14.4 13 Sur 18 Sur 0 1000.7 -1.7 98
2019-11-22 08:00:00 13.7 9 Sudeste 13 Sudeste 0 1000.9 -2 98
2019-11-22 07:00:00 13.8 0 Calma 5 Norte 0.1 1002 -1.6 97
2019-11-22 06:00:00 13.8 0 Calma 8 Noroeste 0 1002.4 -1.4 96
2019-11-22 05:00:00 14 2 Noroeste 8 Oeste 0 1002.9 -0.9 96
2019-11-22 04:00:00 14.1 6 Noroeste 9 Noroeste 0 1003.6 -1.1 97
2019-11-22 03:00:00 14.3 7 Oeste 11 Oeste 0 1003.8 -1.3 97
2019-11-22 02:00:00 14.2 5 Sudoeste 11 Sudoeste 0 1003.8 -1.5 97
2019-11-22 01:00:00 14.3 10 Oeste 22 Sudoeste 0 1004.7 -0.8 97
2019-11-22 00:00:00 14.6 12 Sudoeste 22 Sudoeste 0 1005.1 -0.2 97
2019-11-21 23:00:00 14.8 13 Sudoeste 28 Sudoeste 0 1005.3 0 95
2019-11-21 22:00:00 15.1 13 Sudoeste 22 Oeste 0 1005.5 0.8 95
2019-11-21 21:00:00 14.9 10 Sudoeste 21 Oeste 0 1005.3 0.9 95
2019-11-21 20:00:00 15.3 17 Sudoeste 26 Sudoeste 0 1005.3 0.8 92
2019-11-21 19:00:00 14.9 8 Sur 15 Sur 0 1004.7 0.1 95
2019-11-21 18:00:00 15 5 Sur 9 Sudoeste 0.2 1004.4 -0.3 94
2019-11-21 17:00:00 14.9 3 Sudoeste 11 Norte 0 1004.5 -0.8 94
2019-11-21 16:00:00 14.3 6 Oeste 11 Noroeste 0.9 1004.6 -1.3 99
2019-11-21 15:00:00 13.8 8 Oeste 32 Noroeste 19.4 1004.7 -1.8 99
2019-11-21 14:00:00 14 14 Norte 18 Norte 3.7 1005.3 -1.2 98
2019-11-21 13:00:00 14.3 4 Noroeste 17 Noroeste 3.6 1005.9 -0.8 95
2019-11-21 12:00:00 14.3 4 Norte 42 Noroeste 0 1006.5 -0.2 93
2019-11-21 11:00:00 14.3 12 Sur 18 Sur 0 1006.5 -0.3 96
2019-11-21 10:00:00 12.8 5 Sudeste -- -- 0 1006.7 0.2 98
2019-11-21 09:00:00 12.2 4 Este 9 Este 0.4 1006.7 0.3 99
2019-11-21 08:00:00 -- -- -- -- -- -- -- -- --
2019-11-21 07:00:00 -- -- -- -- -- -- -- -- --
2019-11-21 06:00:00 -- -- -- -- -- -- -- -- --
2019-11-21 05:00:00 -- -- -- -- -- -- -- -- --
2019-11-21 04:00:00 -- -- -- -- -- -- -- -- --
2019-11-21 03:00:00 -- -- -- -- -- -- -- -- --
2019-11-21 02:00:00 -- -- -- -- -- -- -- -- --
2019-11-21 01:00:00 -- -- -- -- -- -- -- -- --
2019-11-21 00:00:00 -- -- -- -- -- -- -- -- --
2019-11-20 23:00:00 -- -- -- -- -- -- -- -- --
2019-11-20 22:00:00 -- -- -- -- -- -- -- -- --
2019-11-20 21:00:00 -- -- -- -- -- -- -- -- --
2019-11-20 20:00:00 -- -- -- -- -- -- -- -- --
2019-11-20 19:00:00 10.4 5 Este 18 Norte 0 1006.6 0.7 95
2019-11-20 18:00:00 10.4 13 Norte 22 Norte 0 1006.6 0.5 95
2019-11-20 17:00:00 11.6 7 Norte 18 Nordeste 0.1 1006 -0.8 97
2019-11-20 16:00:00 10.6 9 Nordeste 21 Nordeste 0.9 1005.9 -1.9 97
2019-11-20 15:00:00 10.1 13 Nordeste 21 Nordeste 2.3 1006.1 -2.4 96
2019-11-20 14:00:00 10.3 11 Nordeste 18 Nordeste 0 1006.8 -2.5 94
2019-11-20 13:00:00 10 14 Nordeste 32 Este 1.1 1007.8 -1.8 94
2019-11-20 12:00:00 10 13 Este 21 Este 0 1008.5 -1 93
2019-11-20 11:00:00 9.1 13 Nordeste 17 Nordeste 0 1009.3 -0.3 94
2019-11-20 10:00:00 8.9 11 Nordeste 17 Nordeste 0 1009.6 0.1 94
2019-11-20 09:00:00 7.9 9 Este 13 Nordeste 0.1 1009.5 0.1 95
2019-11-20 08:00:00 7.4 3 Norte 11 Norte 0.1 1009.6 -0.2 94
2019-11-20 07:00:00 7.1 3 Noroeste -- -- 0 1009.5 -1 95
2019-11-20 06:00:00 6.2 3 Nordeste 8 Este 0 1009.4 -1.4 95
2019-11-20 05:00:00 6.7 2 Este 8 Nordeste 0 1009.8 -1.5 94
2019-11-20 04:00:00 7 2 Norte 11 Nordeste 0 1010.5 -1.1 93
2019-11-20 03:00:00 7.7 6 Nordeste 9 Nordeste 0 1010.8 -0.9 93
2019-11-20 02:00:00 8.3 3 Nordeste 11 Nordeste 0 1011.3 -1 92
2019-11-20 01:00:00 8.5 5 Nordeste 8 Nordeste 0 1011.6 -0.6 93
2019-11-20 00:00:00 9.4 5 Nordeste 11 Nordeste 0 1011.7 -0.8 90
2019-11-19 23:00:00 10.6 0 Calma 8 Noroeste 0 1012.3 -0.2 87
2019-11-19 22:00:00 12 0 Calma 8 Nordeste 0 1012.2 -0.1 82
2019-11-19 21:00:00 13.2 5 Nordeste 8 Este 0 1012.5 0.3 78
2019-11-19 20:00:00 13.6 4 Este 5 Sudeste 0 1012.5 0.2 75
2019-11-19 19:00:00 14.7 5 Nordeste 21 Norte 0 1012.3 -0.4 65
2019-11-19 18:00:00 15.3 6 Norte 11 Norte 0 1012.2 -1 59
2019-11-19 17:00:00 15.8 4 Nordeste 13 Norte 0 1012.3 -1.6 56
2019-11-19 16:00:00 15.9 5 Norte 13 Nordeste 0 1012.7 -2.2 58
2019-11-19 15:00:00 16 4 Nordeste 15 Norte 0 1013.2 -2.7 60
2019-11-19 14:00:00 14.7 8 Nordeste 15 Norte 0 1013.9 -2.3 66
2019-11-19 13:00:00 13.4 6 Norte 13 Norte 0 1014.9 -1.4 70
2019-11-19 12:00:00 11.7 4 Nordeste 13 Nordeste 0 1015.9 -0.1 76
2019-11-19 11:00:00 9.5 10 Nordeste 17 Nordeste 0 1016.2 0.6 84
2019-11-19 10:00:00 8.4 9 Nordeste 18 Nordeste 0 1016.3 1.1 85
2019-11-19 09:00:00 7.2 8 Este 13 Este 0 1016 1 92
2019-11-19 08:00:00 6.2 3 Nordeste 13 Nordeste 0 1015.6 0.7 94
2019-11-19 07:00:00 6.4 5 Nordeste 11 Nordeste 0 1015.2 0.3 94
2019-11-19 06:00:00 7.1 9 Nordeste 11 Norte 0 1015 0.3 93
2019-11-19 05:00:00 7.2 0 Calma 9 Este 0 1014.9 0.1 92
2019-11-19 04:00:00 7.4 0 Calma 9 Sur 0 1014.9 -0.4 91
2019-11-19 03:00:00 7.2 6 Este -- -- 0 1014.7 -0.8 92
2019-11-19 02:00:00 7.5 4 Este 9 Sur 0 1014.8 -0.8 91
2019-11-19 01:00:00 8.3 2 Nordeste 5 Nordeste 0 1015.3 0.1 88
2019-11-19 00:00:00 9.7 5 Norte 15 Norte 0 1015.5 0.6 84
2019-11-18 23:00:00 10.1 3 Norte 8 Noroeste 0 1015.6 1.3 82
2019-11-18 22:00:00 11 4 Oeste 11 Oeste 0 1015.2 1.7 77
2019-11-18 21:00:00 11.1 5 Oeste 11 Noroeste 0 1014.9 2.1 77
2019-11-18 20:00:00 13.1 6 Sur 15 Sudoeste 0 1014.3 1.7 66
2019-11-18 19:00:00 13.5 8 Sudeste 11 Sudeste 0 1013.5 1.2 70
2019-11-18 18:00:00 17.4 3 Sur 9 Noroeste 0 1012.8 0.5 48
2019-11-18 17:00:00 17.8 3 Noroeste 17 Noroeste 0 1012.6 0.1 44
2019-11-18 16:00:00 17.6 3 Sudeste 9 Sur 0 1012.3 -0.5 46
2019-11-18 15:00:00 16.5 6 Nordeste 13 Nordeste 0 1012.3 -1 52
2019-11-18 14:00:00 15.8 7 Norte 15 Norte 0 1012.5 -0.7 56
2019-11-18 13:00:00 14.7 10 Norte 18 Norte 0 1012.8 -0.1 62
2019-11-18 12:00:00 12.9 8 Norte 17 Noroeste 0 1013.3 1.1 69
2019-11-18 11:00:00 11.7 14 Noroeste 26 Noroeste 0 1013.2 1.5 72
2019-11-18 10:00:00 10.3 13 Oeste 24 Oeste 0 1012.9 1.8 77
2019-11-18 09:00:00 9 14 Noroeste 18 Noroeste 0 1012.2 2 81
2019-11-18 08:00:00 7.8 9 Oeste 17 Oeste 0 1011.7 2.3 87
2019-11-18 07:00:00 8.6 10 Oeste 18 Oeste 0 1011.1 2.1 86
2019-11-18 06:00:00 9.5 17 Oeste 28 Noroeste 0 1010.2 1.7 84
2019-11-18 05:00:00 10.6 24 Oeste 37 Noroeste 0 1009.4 1.3 79
2019-11-18 04:00:00 12.3 25 Oeste 41 Noroeste 0 1009 -0.3 80
2019-11-18 03:00:00 13.8 24 Oeste 37 Oeste 0.4 1008.5 -1.6 92
2019-11-18 02:00:00 14.3 21 Noroeste 35 Norte 4.8 1008.1 -2.4 95
2019-11-18 01:00:00 14.3 8 Norte 28 Sudoeste 2.1 1009.3 -1.7 92
2019-11-18 00:00:00 15 18 Sudoeste 32 Oeste 0 1010.1 -1.2 85
2019-11-17 23:00:00 15.3 19 Sudoeste 30 Oeste 0 1010.5 -1.2 82
2019-11-17 22:00:00 15.1 24 Sudoeste 35 Oeste 0 1011 -1.1 85
2019-11-17 21:00:00 15 14 Sudoeste 24 Sudoeste 0 1011.3 -1.1 88
2019-11-17 20:00:00 13.7 6 Oeste 18 Sudoeste 0 1011.7 -1.4 93
2019-11-17 19:00:00 12.4 4 Noroeste 13 Nordeste 0 1012.1 -1.6 95
2019-11-17 18:00:00 12.2 6 Nordeste 15 Nordeste 0 1012.4 -2 94
2019-11-17 17:00:00 13.6 4 Norte 11 Norte 0 1013.1 -2.3 91
2019-11-17 16:00:00 11.9 10 Norte 18 Norte 0 1013.7 -2.7 94
2019-11-17 15:00:00 11.4 7 Norte 13 Noroeste 0 1014.4 -3.1 94
2019-11-17 14:00:00 9.1 3 Sudoeste 17 Norte 0 1015.4 -2.2 95
2019-11-17 13:00:00 9.5 6 Noroeste 11 Norte 0.2 1016.4 -1.2 95
2019-11-17 12:00:00 8.8 6 Sudoeste 11 Sudoeste 0.3 1017.5 0.1 95
2019-11-17 11:00:00 8.2 5 Sur 9 Sur 0 1017.6 0.8 95
2019-11-17 10:00:00 7.1 5 Sudeste 11 Sur 0.3 1017.6 1.1 93
2019-11-17 09:00:00 7.3 8 Sudoeste 11 Sudoeste 0 1017.4 1.2 84
2019-11-17 08:00:00 7.3 6 Sudeste 9 Sudoeste 0 1016.8 0.5 78
2019-11-17 07:00:00 6.8 5 Sur 9 Sur 0 1016.5 0.1 79
2019-11-17 06:00:00 5.6 4 Sur 8 Sur 0 1016.2 -0.5 85
2019-11-17 05:00:00 5.2 -- -- -- -- 0 1016.3 -0.1 83
2019-11-17 04:00:00 4.2 3 Sudoeste 5 Sudoeste 0 1016.4 -0.5 79
2019-11-17 03:00:00 4.9 4 Oeste 8 Noroeste 0 1016.7 0 73
2019-11-17 02:00:00 4.6 3 Sudeste 8 Sudeste 0 1016.4 -0.3 76
2019-11-17 01:00:00 6.1 3 Oeste 5 Sudoeste 0 1016.9 0.4 67
2019-11-17 00:00:00 6.1 5 Sur 9 Sur 0 1016.7 0.7 69
2019-11-16 23:00:00 7.6 4 Sudoeste 8 Sur 0 1016.7 1.3 61
2019-11-16 22:00:00 9.9 4 Norte 15 Oeste 0 1016.5 1.6 49
2019-11-16 21:00:00 11 14 Noroeste 18 Oeste 0 1016 1.5 48
2019-11-16 20:00:00 11.5 3 Este 13 Sur 0 1015.4 1.2 55
2019-11-16 19:00:00 13.3 10 Sur 21 Sudoeste 0 1014.9 0.8 47
2019-11-16 18:00:00 15 9 Sur 18 Sudoeste 0 1014.5 0.4 38
2019-11-16 17:00:00 16.1 10 Sur 21 Sudoeste 0 1014.2 0.1 35
2019-11-16 16:00:00 16 9 Oeste 22 Sudoeste 0 1014.1 -0.4 34
2019-11-16 15:00:00 15.1 7 Oeste 17 Oeste 0 1014.1 -1 37
2019-11-16 14:00:00 13.3 5 Norte 13 Noroeste 0 1014.1 -0.6 44
2019-11-16 13:00:00 12.8 6 Oeste 13 Noroeste 0 1014.5 0.5 47
2019-11-16 12:00:00 11.2 9 Este 18 Norte 0 1015.1 2.2 51
2019-11-16 11:00:00 9.9 6 Noroeste 13 Noroeste 0 1014.7 3.1 57
2019-11-16 10:00:00 8.3 3 Oeste 5 Oeste 0 1014 3.2 64
2019-11-16 09:00:00 3.6 3 Este 8 Este 0 1012.9 2.9 83
2019-11-16 08:00:00 2.5 2 Oeste 13 Noroeste 0 1011.6 2 82
2019-11-16 07:00:00 2.3 0 Calma 5 Noroeste 0 1010.8 2 83
2019-11-16 06:00:00 3.3 0 Calma 5 Oeste 0 1010 1.5 80
2019-11-16 05:00:00 5.4 6 Norte 13 Noroeste 0 1009.6 1.3 69
2019-11-16 04:00:00 5.9 2 Este 5 Noroeste 0 1008.8 0.7 70
2019-11-16 03:00:00 5.9 4 Noroeste 9 Oeste 0 1008.5 0.8 67
2019-11-16 02:00:00 5.7 8 Oeste 11 Oeste 0 1008.3 0.9 67
2019-11-16 01:00:00 6.4 3 Noroeste 8 Noroeste 0 1008.1 1.1 65
2019-11-16 00:00:00 8 8 Noroeste 17 Noroeste 0 1007.7 1.2 56
2019-11-15 23:00:00 8.6 14 Oeste 21 Oeste 0 1007.4 1.2 56
2019-11-15 22:00:00 9.5 15 Oeste 21 Oeste 0 1007 1.2 53
2019-11-15 21:00:00 10.6 12 Oeste 21 Noroeste 0 1006.5 1.2 50
2019-11-15 20:00:00 12.5 13 Noroeste 18 Noroeste 0 1006.2 1.2 45
2019-11-15 19:00:00 12.5 5 Sudeste 13 Este 0 1005.8 0.9 50
2019-11-15 18:00:00 13.7 11 Nordeste 17 Norte 0 1005.3 0.3 43
2019-11-15 17:00:00 14 8 Norte 22 Norte 0 1005 -0.3 40
2019-11-15 16:00:00 14.5 17 Norte 32 Norte 0 1004.9 -1.4 39
2019-11-15 15:00:00 14.3 22 Noroeste 33 Noroeste 0 1005 -2 38
2019-11-15 14:00:00 14.7 16 Oeste 37 Noroeste 0 1005.3 -2.2 39
2019-11-15 13:00:00 13.1 14 Oeste 26 Oeste 0 1006.3 -1.2 47
2019-11-15 12:00:00 12.1 8 Oeste 21 Oeste 0 1007 -0.1 53
2019-11-15 11:00:00 11 10 Sur 18 Sur 0 1007.5 0.9 66
2019-11-15 10:00:00 8.4 11 Sur 18 Sudoeste 0 1007.5 1.3 79
2019-11-15 09:00:00 7.6 10 Sur 22 Sudoeste 0 1007.1 1 82
2019-11-15 08:00:00 7.6 12 Sudoeste 22 Sudoeste 0 1006.6 0.7 80
2019-11-15 07:00:00 8 16 Sudoeste 21 Sudoeste 0 1006.2 0 77
2019-11-15 06:00:00 8.6 15 Sudoeste 21 Sudoeste 0 1006.1 -0.4 74
2019-11-15 05:00:00 8.8 9 Sudoeste 28 Oeste 0 1005.9 -0.7 72
2019-11-15 04:00:00 9.5 17 Oeste 32 Oeste 0 1006.2 -0.9 69
2019-11-15 03:00:00 10 23 Oeste 32 Oeste 0 1006.5 -0.3 67
2019-11-15 02:00:00 10.4 19 Oeste 26 Oeste 0 1006.6 -0.2 71
2019-11-15 01:00:00 10.9 17 Oeste 26 Oeste 0 1007.1 0.1 66
2019-11-15 00:00:00 10.9 18 Oeste 28 Oeste 0 1006.8 -0.4 72
2019-11-14 23:00:00 11.3 15 Sudoeste 28 Oeste 0 1006.8 0.3 72
2019-11-14 22:00:00 11.8 16 Oeste 26 Sudoeste 0 1007 0.4 69
2019-11-14 21:00:00 12.4 19 Oeste 28 Oeste 0 1007.2 0.9 62
2019-11-14 20:00:00 12.8 18 Oeste 30 Oeste 0 1006.5 0.6 62
2019-11-14 19:00:00 13.1 25 Oeste 37 Oeste 0 1006.6 0.7 61
2019-11-14 18:00:00 14.5 27 Oeste 41 Oeste 0 1006.3 0 54
2019-11-14 17:00:00 14.8 29 Oeste 42 Oeste 0 1005.9 -1 53
2019-11-14 16:00:00 14.1 21 Oeste 46 Noroeste 0 1005.9 -1.6 57
2019-11-14 15:00:00 15 27 Noroeste 45 Noroeste 0 1006.3 -1.5 57
2019-11-14 14:00:00 14.4 30 Noroeste 41 Noroeste 0 1006.9 -1.3 67
2019-11-14 13:00:00 13.2 31 Noroeste 48 Noroeste 1.1 1007.5 -0.9 80
2019-11-14 12:00:00 14.9 26 Oeste 45 Sudoeste 0 1007.8 -1.1 74
2019-11-14 11:00:00 14.7 27 Oeste 45 Oeste 0 1008.2 -0.6 73
2019-11-14 10:00:00 13.8 24 Sudoeste 37 Sudoeste 0 1008.4 -1.1 78
2019-11-14 09:00:00 12.4 21 Sudoeste 32 Sudoeste 0 1008.9 -0.7 81
2019-11-14 08:00:00 11.6 18 Sudoeste 30 Sudoeste 0 1008.8 -1.2 83
2019-11-14 07:00:00 11.1 16 Sudoeste 28 Sudoeste 0 1009.5 -1 88
2019-11-14 06:00:00 10.5 17 Sudoeste 28 Sudoeste 0 1009.6 -1.3 88
2019-11-14 05:00:00 11.4 8 Sudoeste 17 Sudoeste 0 1010 -1.3 82
2019-11-14 04:00:00 11.7 12 Oeste 24 Oeste 0 1010.5 -1 82
2019-11-14 03:00:00 13 18 Oeste 26 Oeste 0 1010.9 -1 81
2019-11-14 02:00:00 14.1 19 Oeste 28 Oeste 0 1011.3 -0.7 81
2019-11-14 01:00:00 14.6 17 Oeste 22 Oeste 0 1011.5 -1.2 79
2019-11-14 00:00:00 14.8 15 Oeste 22 Sudoeste 0 1011.9 0 79
2019-11-13 23:00:00 14.8 12 Sudoeste 21 Sudoeste 0 1012 0.1 82
2019-11-13 22:00:00 15.9 13 Sudoeste 21 Sudoeste 0 1012.7 0.9 78
2019-11-13 21:00:00 17.1 14 Sudoeste 18 Sudoeste 0 1011.9 0.5 71
2019-11-13 20:00:00 18.2 15 Oeste 24 Oeste 0 1011.9 0.7 58
2019-11-13 19:00:00 19.5 16 Oeste 24 Oeste 0 1011.8 1.1 54
2019-11-13 18:00:00 21.2 18 Oeste 28 Oeste 0 1011.4 0.3 49
2019-11-13 17:00:00 22.4 18 Oeste 30 Oeste 0 1011.2 -0.5 44
2019-11-13 16:00:00 22.4 15 Oeste 30 Oeste 0 1010.7 -1.8 44
2019-11-13 15:00:00 21.9 20 Sudoeste 37 Sudoeste 0 1011.1 -1.6 51
2019-11-13 14:00:00 20.8 20 Oeste 32 Oeste 0 1011.7 -0.9 59
2019-11-13 13:00:00 19.3 19 Oeste 32 Oeste 0 1012.5 0.1 69
2019-11-13 12:00:00 17.8 30 Oeste 41 Oeste 0 1012.7 0.8 76
2019-11-13 11:00:00 17.2 18 Oeste 30 Oeste 0 1012.6 1.1 74
2019-11-13 10:00:00 15.9 14 Sudoeste 22 Oeste 0 1012.4 1.2 80
2019-11-13 09:00:00 14.9 13 Sudoeste 24 Sudoeste 0 1011.9 0.5 86
2019-11-13 08:00:00 14.8 13 Sudoeste 30 Sudoeste 0 1011.5 -0.2 85
2019-11-13 07:00:00 14.6 23 Sudoeste 35 Sudoeste 0 1011.2 -0.6 85
2019-11-13 06:00:00 14.8 19 Sudoeste 32 Sudoeste 0 1011.4 -0.8 82
2019-11-13 05:00:00 14.4 23 Sudoeste 33 Sudoeste 0 1011.7 -0.9 81
2019-11-13 04:00:00 14.6 24 Sudoeste 35 Sudoeste 0 1011.8 -1.3 78
2019-11-13 03:00:00 14.2 18 Sudoeste 32 Sudoeste 0 1012.2 -1.3 75
2019-11-13 02:00:00 15.1 18 Sudoeste 26 Oeste 0 1012.6 -0.7 70
2019-11-13 01:00:00 15.6 17 Oeste 22 Oeste 0 1013.1 -0.1 68
2019-11-13 00:00:00 14.8 12 Oeste 17 Oeste 0 1013.5 0.6 65
2019-11-12 23:00:00 13.5 12 Oeste 15 Oeste 0 1013.3 0.4 62
2019-11-12 22:00:00 14 10 Oeste 15 Noroeste 0 1013.2 0.7 55
2019-11-12 21:00:00 15.2 6 Noroeste 18 Noroeste 0 1012.9 0.9 51
2019-11-12 20:00:00 16.8 10 Noroeste 21 Noroeste 0 1012.9 1.2 45
2019-11-12 19:00:00 17.9 8 Norte 18 Norte 0 1012.5 0.5 37
2019-11-12 18:00:00 19.8 11 Nordeste 21 Norte 0 1012 -0.3 32
2019-11-12 17:00:00 21.1 10 Norte 22 Norte 0 1011.7 -1.7 31
2019-11-12 16:00:00 21.2 10 Oeste 21 Oeste 0 1012 -1.9 31
2019-11-12 15:00:00 20.8 5 Noroeste 15 Oeste 0 1012.3 -2.6 35
2019-11-12 14:00:00 19.6 6 Oeste 17 Oeste 0 1013.4 -1.2 40
2019-11-12 13:00:00 17.8 8 Oeste 18 Noroeste 0 1013.9 -0.8 51
2019-11-12 12:00:00 16.3 9 Norte 18 Norte 0 1014.9 0.8 58
2019-11-12 11:00:00 14.4 8 Norte 21 Norte 0 1014.6 1.2 67
2019-11-12 10:00:00 12.9 0 Calma 5 Sudeste 0 1014.7 1.8 81
2019-11-12 09:00:00 9.2 5 Sudeste 8 Sur 0 1014.1 1.1 95
2019-11-12 08:00:00 7.8 0 Calma 8 Sudeste 0 1013.4 0.7 94
2019-11-12 07:00:00 8 8 Sudeste 11 Sudeste 0 1012.9 -0.4 95
2019-11-12 06:00:00 9.1 0 Calma 11 Norte 0 1013 -0.6 94
2019-11-12 05:00:00 9.9 2 Oeste 5 Oeste 0 1012.7 -1 94
2019-11-12 04:00:00 10.5 7 Noroeste 11 Noroeste 0 1013.3 -0.5 92
2019-11-12 03:00:00 10.7 9 Nordeste 13 Norte 0 1013.6 0.1 91
2019-11-12 02:00:00 11.2 6 Nordeste 9 Nordeste 0 1013.7 -0.4 91
2019-11-12 01:00:00 11.7 3 Norte 11 Norte 0 1013.8 0.1 89
2019-11-12 00:00:00 13.5 5 Norte 11 Noroeste 0 1013.5 0.5 86
2019-11-11 23:00:00 14.4 5 Noroeste 13 Norte 0 1014.1 0.8 83
2019-11-11 22:00:00 15.2 4 Noroeste 13 Oeste 0 1013.7 0.9 82
2019-11-11 21:00:00 16.4 11 Oeste 15 Oeste 0 1013 0.2 78
2019-11-11 20:00:00 17.7 10 Noroeste 15 Oeste 0 1013.3 0.7 73
2019-11-11 19:00:00 18.8 9 Noroeste 13 Noroeste 0 1012.8 0 70
2019-11-11 18:00:00 19.1 5 Oeste 13 Sudoeste 0 1012.8 -0.6 70
2019-11-11 17:00:00 18.7 11 Sudoeste 18 Sudoeste 0 1012.6 -1.8 73
2019-11-11 16:00:00 18 13 Sudoeste 21 Sudoeste 0 1012.8 -2.6 74
2019-11-11 15:00:00 16.8 16 Sudoeste 21 Sudoeste 0 1013.4 -2.6 76
2019-11-11 14:00:00 16.6 13 Sudoeste 17 Sudoeste 0 1014.4 -2 73
2019-11-11 13:00:00 16.7 10 Oeste 17 Oeste 0 1015.4 -1.4 70
2019-11-11 12:00:00 16.2 6 Sur 13 Sur 0 1016 -0.8 70
2019-11-11 11:00:00 14.9 9 Oeste 15 Oeste 0 1016.4 -0.1 75
2019-11-11 10:00:00 14 6 Oeste 13 Oeste 0 1016.8 0.4 79
2019-11-11 09:00:00 13.5 10 Oeste 15 Oeste 0 1016.8 0.6 82
2019-11-11 08:00:00 13.1 7 Oeste 17 Oeste 0 1016.5 -0.2 82
2019-11-11 07:00:00 13.2 11 Oeste 17 Noroeste 0 1016.4 -0.7 82
2019-11-11 06:00:00 13.3 12 Oeste 22 Noroeste 0 1016.2 -1.4 80
2019-11-11 05:00:00 13.5 14 Noroeste 24 Oeste 0 1016.7 -1.3 77
2019-11-11 04:00:00 13.9 20 Oeste 26 Oeste 0 1017.1 -1 72
2019-11-11 03:00:00 14.2 21 Oeste 24 Oeste 0 1017.6 -0.6 70
2019-11-11 02:00:00 14.5 20 Oeste 26 Oeste 0 1018 0.1 67
2019-11-11 01:00:00 14.6 21 Oeste 30 Oeste 0 1018.1 0.5 65
2019-11-11 00:00:00 14.7 23 Oeste 30 Oeste 0 1018.2 0.5 63
2019-11-10 23:00:00 15 17 Oeste 22 Oeste 0 1017.9 0.2 58
2019-11-10 22:00:00 15.3 14 Noroeste 28 Noroeste 0 1017.6 -0.1 55
2019-11-10 21:00:00 15.7 16 Noroeste 30 Oeste 0 1017.7 0.3 52
2019-11-10 20:00:00 16 20 Noroeste 37 Noroeste 0 1017.7 0.5 48
2019-11-10 19:00:00 16.2 9 Noroeste 26 Norte 0 1017.7 0.8 46
2019-11-10 18:00:00 16.9 17 Norte 30 Norte 0 1017.4 1 41
2019-11-10 17:00:00 17.2 19 Norte 46 Norte 0 1017.2 0.5 40
2019-11-10 16:00:00 17.8 34 Norte 50 Noroeste 0 1016.9 -0.5 36
2019-11-10 15:00:00 19.1 32 Norte 46 Norte 0 1016.4 -1.7 29
2019-11-10 14:00:00 18.4 32 Norte 45 Norte 0 1016.7 -1.8 30
2019-11-10 13:00:00 18.3 30 Norte 42 Norte 0 1017.4 -1.2 33
2019-11-10 12:00:00 17.3 20 Norte 42 Norte 0 1018.1 -0.5 42
2019-11-10 11:00:00 15.7 22 Noroeste 33 Noroeste 0 1018.5 1.4 54
2019-11-10 10:00:00 13.8 19 Noroeste 26 Noroeste 0 1018.6 1.6 63
2019-11-10 09:00:00 11.8 10 Noroeste 18 Noroeste 0 1018.6 1.8 72
2019-11-10 08:00:00 10.7 11 Oeste 21 Oeste 0 1017.1 0.4 76
2019-11-10 07:00:00 11.6 10 Oeste 15 Oeste 0 1017 0.5 72
2019-11-10 06:00:00 12.3 6 Oeste 21 Oeste 0 1016.8 0.3 70
2019-11-10 05:00:00 13 18 Oeste 22 Oeste 0 1016.7 0.1 68
2019-11-10 04:00:00 13.3 15 Noroeste 35 Norte 0 1016.5 -0.6 71
2019-11-10 03:00:00 14.5 24 Noroeste 32 Noroeste 0 1016.5 -1.1 76
2019-11-10 02:00:00 15 11 Oeste 18 Oeste 0 1016.6 -1.4 82
2019-11-10 01:00:00 15.3 14 Sudoeste 21 Sudoeste 0 1017.1 -1 78
2019-11-10 00:00:00 15.7 15 Sudoeste 26 Sudoeste 0 1017.6 -0.7 74
2019-11-09 23:00:00 15.3 16 Sudoeste 28 Sudoeste 0 1018 -0.6 74
2019-11-09 22:00:00 15.6 17 Sudoeste 26 Sudoeste 0 1018.1 -0.4 66
2019-11-09 21:00:00 16.7 12 Sudoeste 17 Sudoeste 0 1018.3 0.1 56
2019-11-09 20:00:00 16.2 9 Oeste 17 Sudoeste 0 1018.6 0.3 54
2019-11-09 19:00:00 16.5 10 Sur 17 Sudoeste 0 1018.5 -0.1 45
2019-11-09 18:00:00 17.7 11 Sur 21 Sur 0 1018.2 -1.2 39
2019-11-09 17:00:00 18.7 15 Sudoeste 24 Oeste 0 1018.3 -1.8 35
2019-11-09 16:00:00 19.2 14 Oeste 26 Oeste 0 1018.6 -2.8 32
2019-11-09 15:00:00 18.8 11 Sudoeste 18 Sudoeste 0 1019.4 -2.7 32
2019-11-09 14:00:00 17.6 7 Sudoeste 13 Sudoeste 0 1020.1 -2.1 36
2019-11-09 13:00:00 16.1 6 Norte 18 Norte 0 1021.4 -0.8 42
2019-11-09 12:00:00 15.4 3 Norte 11 Norte 0 1022.1 -0.1 46
2019-11-09 11:00:00 12.9 0 Calma 9 Norte 0 1022.2 0.7 58
2019-11-09 10:00:00 10.6 2 Sudeste 9 Sur 0 1022.2 1.6 67
2019-11-09 09:00:00 7.4 0 Calma 8 Oeste 0 1022.2 2 81
2019-11-09 08:00:00 4.7 5 Oeste 9 Sudeste 0 1021.5 1.4 86
2019-11-09 07:00:00 4.7 7 Sudeste 9 Sudeste 0 1020.6 0.2 85
2019-11-09 06:00:00 5.9 3 Nordeste 8 Norte 0 1020.2 -0.1 81
2019-11-09 05:00:00 5.7 3 Oeste 8 Noroeste 0 1020.1 -0.5 80
2019-11-09 04:00:00 7.3 3 Oeste 8 Nordeste 0 1020.4 -0.2 75
2019-11-09 03:00:00 7.2 5 Nordeste 8 Nordeste 0 1020.3 -0.3 77
2019-11-09 02:00:00 7.3 0 Calma 9 Este 0 1020.6 0.2 76
2019-11-09 01:00:00 7.9 4 Nordeste 8 Nordeste 0 1020.6 0.6 73
2019-11-09 00:00:00 10 6 Norte 13 Norte 0 1020.6 1.1 61
2019-11-08 23:00:00 10.2 5 Norte 11 Nordeste 0 1020.4 1.5 61
2019-11-08 22:00:00 11.3 2 Sudeste 17 Noroeste 0 1020 2 55
2019-11-08 21:00:00 13.8 8 Noroeste 17 Norte 0 1019.5 2.4 42
2019-11-08 20:00:00 14.3 6 Norte 21 Norte 0 1018.9 2.5 42
2019-11-08 19:00:00 16.6 8 Norte 18 Norte 0 1018 1.9 32
2019-11-08 18:00:00 18.4 10 Noroeste 22 Noroeste 0 1017.1 1.1 27
2019-11-08 17:00:00 19 12 Noroeste 26 Noroeste 0 1016.4 0.1 26
2019-11-08 16:00:00 19 20 Noroeste 39 Norte 0 1016.1 -0.9 26
2019-11-08 15:00:00 18.5 19 Norte 32 Norte 0 1016 -1.3 28
2019-11-08 14:00:00 17.9 18 Norte 32 Norte 0 1016.3 -1 30
2019-11-08 13:00:00 16.8 16 Noroeste 33 Norte 0 1017 -0.4 39
2019-11-08 12:00:00 16 21 Noroeste 32 Noroeste 0 1017.3 0.5 43
2019-11-08 11:00:00 14.4 19 Oeste 30 Oeste 0 1017.3 1.3 62
2019-11-08 10:00:00 13 19 Oeste 28 Oeste 0 1017.4 2.4 72
2019-11-08 09:00:00 11.6 20 Oeste 28 Oeste 0 1016.8 1.9 80
2019-11-08 08:00:00 11 20 Oeste 28 Oeste 0 1016 1.2 80
2019-11-08 07:00:00 11 10 Oeste 21 Oeste 0 1015 0.4 78
2019-11-08 06:00:00 9.8 15 Oeste 18 Oeste 0 1014.9 0.5 82
2019-11-08 05:00:00 9.1 13 Oeste 17 Oeste 0 1014.8 0.6 82
2019-11-08 04:00:00 10.2 9 Sudoeste 18 Oeste 0 1014.6 0 76
2019-11-08 03:00:00 11.4 13 Oeste 17 Oeste 0 1014.4 -0.2 70
2019-11-08 02:00:00 10.9 13 Oeste 18 Oeste 0 1014.2 -0.5 71
2019-11-08 01:00:00 11.3 12 Oeste 18 Oeste 0 1014.6 0.3 68
2019-11-08 00:00:00 11.6 13 Oeste 18 Oeste 0 1014.6 0.9 66